Terminal Aerodrome Forecast
Issued by NWS

Home | Current Version | Previous Version | Text Only | Print | Product List | Glossary On
Versions: 1 2 3 4 5 6 7 8 9 10 11 12
000
FTUS46 KSGX 230520
TAFSNA
TAF
KSNA 230520Z 2306/2406 21005KT P6SM BKN150
     FM231100 VRB04KT 5SM BR SCT008
     FM231500 17004KT 6SM BR FEW010
     FM231900 23008KT P6SM SKC
     FM240300 21005KT P6SM SKC=

USA.gov is the U.S. government's official web portal to all federal, state and local government web resources and services.